Time;durP1;ratioP1;P1;durP2;ratioP2;P2;SDS_P1;SDS_P2;PMS_P1;PMS_P2;Temp;Humidity;BMP_temperature;BMP_pressure;BME280_temperature;BME280_humidity;BME280_pressure;Samples;Min_cycle;Max_cycle;Signal;HPM_P1;HPM_P2
2023/05/01 00:01:08;;;;;;;7.65;3.80;;;9.00;99.90;;;;;;5079897;28;20036;-58
2023/05/01 00:03:34;;;;;;;10.30;4.43;;;9.10;99.90;;;;;;5080766;28;20059;-58
2023/05/01 00:06:04;;;;;;;10.20;4.88;;;9.10;99.90;;;;;;5080663;28;20075;-58
2023/05/01 00:08:31;;;;;;;8.77;4.05;;;8.90;99.90;;;;;;5079806;28;20044;-58
2023/05/01 00:11:01;;;;;;;8.27;4.55;;;8.90;99.90;;;;;;5080754;28;20416;-58
2023/05/01 00:13:26;;;;;;;10.85;4.53;;;8.90;99.90;;;;;;5079333;28;20055;-58
2023/05/01 00:15:52;;;;;;;10.15;4.40;;;8.90;99.90;;;;;;5079482;28;20500;-59
2023/05/01 00:18:18;;;;;;;9.48;4.47;;;8.90;99.90;;;;;;5079603;28;20071;-58
2023/05/01 00:20:44;;;;;;;10.25;4.40;;;8.90;99.90;;;;;;5080702;28;20040;-58
2023/05/01 00:23:11;;;;;;;10.70;4.50;;;8.90;99.90;;;;;;5080194;28;20051;-58
2023/05/01 00:25:38;;;;;;;11.43;5.10;;;8.80;99.90;;;;;;5079269;28;20060;-60
2023/05/01 00:28:05;;;;;;;9.95;5.05;;;8.80;99.90;;;;;;5080951;28;20044;-58
2023/05/01 00:30:33;;;;;;;8.98;4.50;;;8.80;99.90;;;;;;5078837;28;20040;-58
2023/05/01 00:32:59;;;;;;;9.13;4.60;;;8.80;99.90;;;;;;5080787;28;20075;-59
2023/05/01 00:35:25;;;;;;;8.23;4.45;;;8.80;99.90;;;;;;5079515;28;20047;-58
2023/05/01 00:37:51;;;;;;;10.93;5.15;;;8.80;99.90;;;;;;5080366;28;20096;-58
2023/05/01 00:40:16;;;;;;;8.25;4.05;;;8.80;99.90;;;;;;5079949;28;20033;-58
2023/05/01 00:42:42;;;;;;;10.27;5.05;;;8.80;99.90;;;;;;5077916;28;20197;-58
2023/05/01 00:45:08;;;;;;;10.27;4.60;;;8.80;99.90;;;;;;5071973;28;20049;-58
2023/05/01 00:47:37;;;;;;;10.98;4.45;;;8.80;99.90;;;;;;5058614;28;20104;-57
2023/05/01 00:50:04;;;;;;;9.23;4.50;;;8.80;99.90;;;;;;5060566;28;20122;-59
2023/05/01 00:52:29;;;;;;;11.68;4.75;;;8.80;99.90;;;;;;5059079;28;20056;-58
2023/05/01 00:54:56;;;;;;;11.13;4.50;;;8.80;99.90;;;;;;5059911;28;20057;-56
2023/05/01 00:57:22;;;;;;;10.05;5.35;;;8.80;99.90;;;;;;5059997;28;20088;-58
2023/05/01 00:59:48;;;;;;;10.23;4.65;;;8.70;99.90;;;;;;5058738;28;20045;-57
2023/05/01 01:02:14;;;;;;;8.35;4.10;;;8.70;99.90;;;;;;5060023;28;20045;-58
2023/05/01 01:04:45;;;;;;;11.13;4.93;;;8.60;99.90;;;;;;5057174;28;20041;-57
2023/05/01 01:07:20;;;;;;;10.23;4.93;;;8.60;99.90;;;;;;5060330;28;20093;-58
2023/05/01 01:10:01;;;;;;;11.38;4.22;;;8.60;99.90;;;;;;5058981;28;20055;-58
2023/05/01 01:12:36;;;;;;;10.27;4.72;;;8.70;99.90;;;;;;5058154;28;20053;-58
2023/05/01 01:15:32;;;;;;;10.07;5.10;;;8.60;99.90;;;;;;5060202;28;20049;-58
2023/05/01 01:18:12;;;;;;;10.50;4.80;;;8.60;99.90;;;;;;5051932;28;20045;-56
2023/05/01 01:20:55;;;;;;;10.60;4.70;;;8.60;99.90;;;;;;5059747;28;20160;-57
2023/05/01 01:23:42;;;;;;;10.55;4.80;;;8.50;99.90;;;;;;5059651;28;20056;-57
2023/05/01 01:26:38;;;;;;;9.32;4.68;;;8.50;99.90;;;;;;5058314;28;20501;-56
2023/05/01 01:29:35;;;;;;;10.13;4.50;;;8.50;99.90;;;;;;5059679;28;20074;-57
2023/05/01 01:32:20;;;;;;;12.27;4.43;;;8.50;99.90;;;;;;5059799;28;20566;-57
2023/05/01 01:34:53;;;;;;;11.02;4.82;;;8.50;99.90;;;;;;5058216;28;20053;-56
2023/05/01 01:37:21;;;;;;;9.95;4.70;;;8.50;99.90;;;;;;5061632;28;20052;-56
2023/05/01 01:40:07;;;;;;;11.95;5.40;;;8.40;99.90;;;;;;5062548;28;20052;-57
2023/05/01 01:42:39;;;;;;;9.80;4.80;;;8.40;99.90;;;;;;5063016;28;20060;-57
2023/05/01 01:45:30;;;;;;;10.90;4.47;;;8.40;99.90;;;;;;5063793;28;20044;-56
2023/05/01 01:47:56;;;;;;;10.77;5.22;;;8.40;99.90;;;;;;5061839;28;20041;-57
2023/05/01 01:50:25;;;;;;;9.30;5.22;;;8.40;99.90;;;;;;5063664;28;20052;-57
2023/05/01 01:52:52;;;;;;;9.20;4.43;;;8.40;99.90;;;;;;5062759;28;20065;-57
2023/05/01 01:55:24;;;;;;;11.40;4.60;;;8.40;99.90;;;;;;5062511;28;20053;-56
2023/05/01 01:57:50;;;;;;;12.70;4.53;;;8.40;99.90;;;;;;5063503;28;20044;-57
2023/05/01 02:00:17;;;;;;;8.82;4.28;;;8.40;99.90;;;;;;5061602;28;20041;-57
2023/05/01 02:02:44;;;;;;;8.75;4.57;;;8.40;99.90;;;;;;5063450;28;20524;-56
2023/05/01 02:05:15;;;;;;;9.35;4.70;;;8.40;99.90;;;;;;5061903;28;20051;-56
2023/05/01 02:07:44;;;;;;;9.43;4.95;;;8.40;99.90;;;;;;5061733;28;20052;-57
2023/05/01 02:10:12;;;;;;;11.88;5.40;;;8.40;99.90;;;;;;5061295;28;20057;-56
2023/05/01 02:12:40;;;;;;;9.10;4.75;;;8.30;99.90;;;;;;5061887;28;20083;-57
2023/05/01 02:15:08;;;;;;;9.50;4.47;;;8.30;99.90;;;;;;5063229;28;20041;-56
2023/05/01 02:17:36;;;;;;;10.93;4.75;;;8.30;99.90;;;;;;5060315;28;20041;-57
2023/05/01 02:20:05;;;;;;;11.40;4.82;;;8.30;99.90;;;;;;5063237;28;20051;-57
2023/05/01 02:22:32;;;;;;;13.75;5.30;;;8.30;99.90;;;;;;5061836;28;20036;-56
2023/05/01 02:25:00;;;;;;;9.80;4.47;;;8.30;99.90;;;;;;5062711;28;20129;-57
2023/05/01 02:27:31;;;;;;;10.98;5.28;;;8.20;99.90;;;;;;5062678;28;20072;-56
2023/05/01 02:29:57;;;;;;;10.50;4.50;;;8.20;99.90;;;;;;5060064;28;20114;-56
2023/05/01 02:32:22;;;;;;;12.15;4.80;;;8.20;99.90;;;;;;5044957;28;20068;-56
2023/05/01 02:34:48;;;;;;;10.07;4.78;;;8.20;99.90;;;;;;5061064;28;20080;-56
2023/05/01 02:37:14;;;;;;;10.85;5.03;;;8.10;99.90;;;;;;5063027;28;20589;-56
2023/05/01 02:39:40;;;;;;;10.52;4.72;;;8.20;99.90;;;;;;5060972;28;20052;-56
2023/05/01 02:42:08;;;;;;;9.60;4.63;;;8.20;99.90;;;;;;5062369;28;20049;-56
2023/05/01 02:44:45;;;;;;;9.57;4.43;;;8.10;99.90;;;;;;5062278;28;20049;-56
2023/05/01 02:47:16;;;;;;;8.77;4.07;;;8.10;99.90;;;;;;5061006;28;20106;-57
2023/05/01 02:49:43;;;;;;;9.93;5.00;;;8.10;99.90;;;;;;5062641;28;20080;-57
2023/05/01 02:52:11;;;;;;;11.50;4.82;;;8.20;99.90;;;;;;5060813;28;20044;-57
2023/05/01 02:54:37;;;;;;;10.35;4.60;;;8.20;99.90;;;;;;5062066;28;20045;-57
2023/05/01 02:57:06;;;;;;;10.48;4.80;;;8.10;99.90;;;;;;5061399;28;20099;-56
2023/05/01 02:59:32;;;;;;;11.57;4.60;;;8.10;99.90;;;;;;5061656;28;20040;-57
2023/05/01 03:01:58;;;;;;;9.85;4.43;;;8.00;99.90;;;;;;5062259;28;20040;-57
2023/05/01 03:04:24;;;;;;;9.00;4.40;;;7.90;99.90;;;;;;5060886;28;20037;-56
2023/05/01 03:06:50;;;;;;;10.95;4.88;;;8.00;99.90;;;;;;5062225;28;20126;-56
2023/05/01 03:09:16;;;;;;;9.50;4.55;;;8.00;99.90;;;;;;5060131;28;20037;-57
2023/05/01 03:11:42;;;;;;;10.30;4.75;;;8.00;99.90;;;;;;5062226;28;20076;-57
2023/05/01 03:14:07;;;;;;;11.30;4.93;;;8.00;99.90;;;;;;5061005;28;20049;-57
2023/05/01 03:16:33;;;;;;;10.32;4.70;;;7.80;99.90;;;;;;5061523;28;20051;-57
2023/05/01 03:18:58;;;;;;;10.48;5.07;;;7.90;99.90;;;;;;5061744;28;20037;-57
2023/05/01 03:21:24;;;;;;;10.60;5.00;;;7.90;99.90;;;;;;5060484;28;20095;-56
2023/05/01 03:23:50;;;;;;;10.40;4.75;;;8.00;99.90;;;;;;5062011;28;20052;-57
2023/05/01 03:26:16;;;;;;;10.35;5.05;;;8.00;99.90;;;;;;5060047;28;20419;-57
2023/05/01 03:28:41;;;;;;;10.40;5.20;;;7.90;99.90;;;;;;5061983;28;20072;-57
2023/05/01 03:31:07;;;;;;;11.45;4.93;;;7.80;99.90;;;;;;5060736;28;20101;-56
2023/05/01 03:33:32;;;;;;;12.70;4.90;;;7.80;99.90;;;;;;5061443;28;20044;-57
2023/05/01 03:36:03;;;;;;;11.90;4.80;;;7.80;99.90;;;;;;5061189;28;20037;-57
2023/05/01 03:38:31;;;;;;;11.77;5.00;;;7.80;99.90;;;;;;5060169;28;20481;-57
2023/05/01 03:40:58;;;;;;;9.35;5.10;;;7.80;99.90;;;;;;5061526;28;20147;-56
2023/05/01 03:43:24;;;;;;;10.27;4.80;;;7.70;99.90;;;;;;5059696;28;20076;-57
2023/05/01 03:45:51;;;;;;;9.57;4.82;;;7.70;99.90;;;;;;5061622;28;20079;-56
2023/05/01 03:48:20;;;;;;;11.20;5.28;;;7.60;99.90;;;;;;5059922;28;20048;-56
2023/05/01 03:50:45;;;;;;;9.00;4.68;;;7.70;99.90;;;;;;5060811;28;20134;-56
2023/05/01 03:53:12;;;;;;;10.18;5.22;;;7.70;99.90;;;;;;5059454;28;20053;-56
2023/05/01 03:55:39;;;;;;;11.50;5.60;;;7.60;99.90;;;;;;5059545;28;20064;-57
2023/05/01 03:58:05;;;;;;;9.77;5.10;;;7.70;99.90;;;;;;5059674;28;20082;-57
2023/05/01 04:00:31;;;;;;;12.13;5.68;;;7.70;99.90;;;;;;5057784;28;20095;-56
2023/05/01 04:02:57;;;;;;;11.30;5.60;;;7.70;99.90;;;;;;5061259;28;20037;-58
2023/05/01 04:05:23;;;;;;;10.15;5.10;;;7.70;99.90;;;;;;5060130;28;20059;-57
2023/05/01 04:07:49;;;;;;;11.45;5.28;;;7.70;99.90;;;;;;5060740;28;20040;-57
2023/05/01 04:10:15;;;;;;;12.93;5.55;;;7.70;99.90;;;;;;5060744;28;20041;-57
2023/05/01 04:12:41;;;;;;;15.88;5.43;;;7.60;99.90;;;;;;5059650;28;20051;-57
2023/05/01 04:15:08;;;;;;;11.38;5.88;;;7.60;99.90;;;;;;5061063;28;20045;-57
2023/05/01 04:17:37;;;;;;;10.02;5.63;;;7.60;99.90;;;;;;5058964;28;20045;-56
2023/05/01 04:20:06;;;;;;;12.65;6.50;;;7.60;99.90;;;;;;5061119;28;20074;-56
2023/05/01 04:22:32;;;;;;;10.98;5.47;;;7.50;99.90;;;;;;5059649;28;20049;-56
2023/05/01 04:24:58;;;;;;;10.93;5.25;;;7.50;99.90;;;;;;5060433;28;20126;-56
2023/05/01 04:27:24;;;;;;;12.05;5.82;;;7.50;99.90;;;;;;5060569;28;20076;-56
2023/05/01 04:29:50;;;;;;;9.05;5.28;;;7.50;99.90;;;;;;5059495;28;20057;-57
2023/05/01 04:32:16;;;;;;;10.27;5.40;;;7.50;99.90;;;;;;5060619;28;20067;-56
2023/05/01 04:34:43;;;;;;;11.50;5.38;;;7.50;99.90;;;;;;5059031;28;20045;-57
2023/05/01 04:37:09;;;;;;;9.73;5.20;;;7.50;99.90;;;;;;5060783;28;20091;-57
2023/05/01 04:39:35;;;;;;;11.18;5.47;;;7.50;99.90;;;;;;5059160;28;20037;-56
2023/05/01 04:42:02;;;;;;;11.10;6.00;;;7.50;99.90;;;;;;5060223;28;20482;-57
2023/05/01 04:44:28;;;;;;;10.88;6.03;;;7.60;99.90;;;;;;5058994;28;20084;-57
2023/05/01 04:46:53;;;;;;;12.95;5.50;;;7.70;99.90;;;;;;5058942;28;20041;-56
2023/05/01 04:49:21;;;;;;;10.43;5.97;;;7.70;99.90;;;;;;5060383;28;20052;-57
2023/05/01 04:51:46;;;;;;;12.32;5.90;;;7.70;99.90;;;;;;5058874;28;20045;-57
2023/05/01 04:54:12;;;;;;;10.15;5.53;;;7.80;99.90;;;;;;5060275;28;20061;-56
2023/05/01 04:56:38;;;;;;;13.52;6.03;;;7.80;99.90;;;;;;5058891;28;20082;-56
2023/05/01 04:59:04;;;;;;;12.50;6.70;;;7.90;99.90;;;;;;5060122;28;20419;-56
2023/05/01 05:01:29;;;;;;;11.90;6.00;;;7.90;99.90;;;;;;5059355;28;20065;-57
2023/05/01 05:03:55;;;;;;;10.13;5.50;;;8.00;99.90;;;;;;5059282;28;20055;-57
2023/05/01 05:06:21;;;;;;;15.43;6.18;;;8.00;99.90;;;;;;5060038;28;20055;-57
2023/05/01 05:08:50;;;;;;;11.90;5.97;;;8.10;99.90;;;;;;5058599;28;20037;-57
2023/05/01 05:11:17;;;;;;;12.88;6.28;;;8.20;99.90;;;;;;5062088;28;20067;-57
2023/05/01 05:13:43;;;;;;;11.00;6.50;;;8.30;99.90;;;;;;5062637;28;20523;-57
2023/05/01 05:16:08;;;;;;;12.00;6.25;;;8.40;99.90;;;;;;5063788;28;20080;-56
2023/05/01 05:18:34;;;;;;;11.32;5.97;;;8.50;99.90;;;;;;5063531;28;20037;-57
2023/05/01 05:21:03;;;;;;;13.52;5.72;;;8.60;99.90;;;;;;5063085;28;20081;-57
2023/05/01 05:23:29;;;;;;;13.85;6.10;;;8.70;99.90;;;;;;5064174;28;20073;-57
2023/05/01 05:25:56;;;;;;;8.50;4.10;;;8.80;99.90;;;;;;5061156;28;20047;-58
2023/05/01 05:28:22;;;;;;;15.30;5.85;;;8.80;99.90;;;;;;5064274;28;20039;-58
2023/05/01 05:30:48;;;;;;;13.60;5.65;;;8.90;99.90;;;;;;5062645;28;20100;-58
2023/05/01 05:33:13;;;;;;;11.55;5.43;;;8.90;99.90;;;;;;5064024;28;20048;-57
2023/05/01 05:35:39;;;;;;;12.68;5.55;;;8.90;99.90;;;;;;5063166;28;20047;-58
2023/05/01 05:38:05;;;;;;;10.65;5.80;;;8.90;99.90;;;;;;5062025;28;20099;-58
2023/05/01 05:40:31;;;;;;;14.65;5.57;;;8.90;99.90;;;;;;5045323;28;20040;-57
2023/05/01 05:42:56;;;;;;;13.43;6.40;;;9.00;99.90;;;;;;5062175;28;20091;-56
2023/05/01 05:45:22;;;;;;;11.75;6.03;;;9.10;99.90;;;;;;5064007;28;20052;-55
2023/05/01 05:47:48;;;;;;;13.90;5.70;;;9.00;99.90;;;;;;5062022;28;20049;-57
2023/05/01 05:50:14;;;;;;;11.07;6.10;;;9.10;99.90;;;;;;5063833;28;20102;-57
2023/05/01 05:52:39;;;;;;;10.98;6.22;;;9.10;99.90;;;;;;5061159;28;20048;-57
2023/05/01 05:55:05;;;;;;;13.23;5.97;;;9.10;99.90;;;;;;5062770;28;20472;-57
2023/05/01 05:57:31;;;;;;;12.88;6.70;;;9.10;99.90;;;;;;5063305;28;20053;-57
2023/05/01 05:59:57;;;;;;;14.68;7.45;;;9.20;99.90;;;;;;5060618;28;20052;-57
2023/05/01 06:02:22;;;;;;;13.18;6.55;;;9.20;99.90;;;;;;5060393;28;20037;-57
2023/05/01 06:04:48;;;;;;;12.80;6.45;;;9.30;99.90;;;;;;5057893;28;20040;-57
2023/05/01 06:07:14;;;;;;;13.90;6.50;;;9.30;99.90;;;;;;5059762;28;20052;-57
2023/05/01 06:09:40;;;;;;;14.20;7.32;;;9.40;99.90;;;;;;5040482;28;20477;-57
2023/05/01 06:12:08;;;;;;;15.05;7.18;;;9.50;99.90;;;;;;5058927;28;20431;-57
2023/05/01 06:14:34;;;;;;;11.23;6.32;;;9.60;99.90;;;;;;5058721;28;20076;-57
2023/05/01 06:17:00;;;;;;;15.55;7.50;;;9.60;99.90;;;;;;5058060;28;20037;-57
2023/05/01 06:19:26;;;;;;;12.65;6.05;;;9.60;99.90;;;;;;5059375;28;20502;-57
2023/05/01 06:21:52;;;;;;;12.50;6.25;;;9.70;99.90;;;;;;5055390;28;20414;-57
2023/05/01 06:24:18;;;;;;;16.88;6.50;;;9.70;99.90;;;;;;5059520;28;20036;-57
2023/05/01 06:26:43;;;;;;;11.45;6.63;;;9.80;99.90;;;;;;5052432;28;20056;-57
2023/05/01 06:29:09;;;;;;;14.25;6.75;;;9.90;99.90;;;;;;5049152;28;20136;-57
2023/05/01 06:31:35;;;;;;;10.77;6.20;;;10.00;99.90;;;;;;5047479;28;20040;-57
2023/05/01 06:34:00;;;;;;;15.75;7.03;;;10.00;99.90;;;;;;5037964;28;20476;-57
2023/05/01 06:36:26;;;;;;;13.23;7.25;;;10.00;99.90;;;;;;5039003;28;20123;-57
2023/05/01 06:38:52;;;;;;;13.55;6.22;;;10.20;99.90;;;;;;5051850;28;20053;-57
2023/05/01 06:41:18;;;;;;;12.20;6.13;;;10.20;99.90;;;;;;5054362;28;20038;-57
2023/05/01 06:43:44;;;;;;;13.30;6.00;;;10.30;99.90;;;;;;5052594;28;20076;-56
2023/05/01 06:46:09;;;;;;;11.35;5.90;;;10.40;99.90;;;;;;5038725;28;20083;-56
2023/05/01 06:48:35;;;;;;;11.27;5.85;;;10.60;99.90;;;;;;5057435;28;20103;-57
2023/05/01 06:51:01;;;;;;;10.88;5.50;;;10.70;99.90;;;;;;5056285;28;20076;-57
2023/05/01 06:53:26;;;;;;;13.25;5.30;;;10.80;99.90;;;;;;5058033;28;20041;-57
2023/05/01 06:55:52;;;;;;;14.15;5.93;;;10.90;99.90;;;;;;5056633;28;20086;-57
2023/05/01 06:58:17;;;;;;;11.43;4.70;;;11.00;99.90;;;;;;5058308;28;20052;-56
2023/05/01 07:00:43;;;;;;;11.02;6.10;;;11.10;99.90;;;;;;5055508;28;20105;-56
2023/05/01 07:03:09;;;;;;;10.00;5.45;;;11.30;99.90;;;;;;5057918;28;20072;-57
2023/05/01 07:05:34;;;;;;;11.00;5.80;;;11.30;99.90;;;;;;5057645;28;20099;-57
2023/05/01 07:08:00;;;;;;;11.88;5.50;;;11.30;99.90;;;;;;5057700;28;20140;-57
2023/05/01 07:10:26;;;;;;;12.88;6.32;;;11.30;99.90;;;;;;5058001;28;20059;-56
2023/05/01 07:12:51;;;;;;;11.27;6.25;;;11.40;99.90;;;;;;5056613;28;20037;-57
2023/05/01 07:15:17;;;;;;;13.13;6.10;;;11.60;99.90;;;;;;5058220;28;20049;-57
2023/05/01 07:17:44;;;;;;;11.05;5.43;;;11.60;99.90;;;;;;5056501;28;20052;-57
2023/05/01 07:20:11;;;;;;;12.20;5.05;;;11.60;99.90;;;;;;5058432;28;20049;-57
2023/05/01 07:22:37;;;;;;;12.15;5.43;;;11.70;99.90;;;;;;5056790;28;20123;-57
2023/05/01 07:25:02;;;;;;;14.15;4.65;;;11.80;99.90;;;;;;5055160;28;20057;-57
2023/05/01 07:27:28;;;;;;;11.13;4.97;;;11.80;99.90;;;;;;5057351;28;20052;-56
2023/05/01 07:29:56;;;;;;;11.55;5.05;;;11.80;99.90;;;;;;5056700;28;20077;-56
2023/05/01 07:32:21;;;;;;;12.30;5.63;;;11.70;99.90;;;;;;5058000;28;20075;-55
2023/05/01 07:34:47;;;;;;;11.63;5.40;;;11.90;99.90;;;;;;5054824;28;20041;-57
2023/05/01 07:37:12;;;;;;;11.43;5.22;;;12.00;99.90;;;;;;5057844;28;20128;-56
2023/05/01 07:39:38;;;;;;;12.15;5.07;;;12.10;99.90;;;;;;5055931;28;20043;-57
2023/05/01 07:42:04;;;;;;;10.93;5.40;;;12.20;99.90;;;;;;5048481;28;20037;-56
2023/05/01 07:44:29;;;;;;;9.65;4.55;;;12.30;99.90;;;;;;5052069;28;20057;-58
2023/05/01 07:47:02;;;;;;;9.23;5.22;;;12.40;99.90;;;;;;5056168;28;20041;-56
2023/05/01 07:49:27;;;;;;;12.57;5.40;;;12.50;99.90;;;;;;5057191;28;20110;-57
2023/05/01 07:51:54;;;;;;;11.10;5.82;;;12.40;99.90;;;;;;5055684;28;20048;-57
2023/05/01 07:54:21;;;;;;;9.75;4.55;;;12.70;99.90;;;;;;5057308;28;20064;-57
2023/05/01 07:56:47;;;;;;;10.52;4.85;;;12.60;99.90;;;;;;5054803;28;20104;-56
2023/05/01 07:59:14;;;;;;;12.10;4.80;;;12.80;99.90;;;;;;5055526;28;20107;-56
2023/05/01 08:01:40;;;;;;;8.85;4.65;;;12.80;99.90;;;;;;5055050;28;20033;-58
2023/05/01 08:04:06;;;;;;;11.48;4.20;;;13.00;99.90;;;;;;5055043;28;20056;-57
2023/05/01 08:06:32;;;;;;;10.93;4.50;;;13.10;99.90;;;;;;5055616;28;20539;-56
2023/05/01 08:08:58;;;;;;;10.35;4.95;;;13.00;99.90;;;;;;5052874;28;20059;-57
2023/05/01 08:11:25;;;;;;;10.98;4.75;;;13.20;99.90;;;;;;5056252;28;20516;-57
2023/05/01 08:13:51;;;;;;;10.13;5.05;;;13.30;99.90;;;;;;5052470;28;20124;-57
2023/05/01 08:16:18;;;;;;;9.10;4.55;;;13.40;99.90;;;;;;5055567;28;20049;-57
2023/05/01 08:18:45;;;;;;;10.10;4.20;;;13.40;99.90;;;;;;5055206;28;20100;-57
2023/05/01 08:21:11;;;;;;;9.23;3.92;;;13.50;99.90;;;;;;5051405;28;20648;-57
2023/05/01 08:23:37;;;;;;;9.48;3.70;;;13.80;99.90;;;;;;5048104;28;20037;-57
2023/05/01 08:26:02;;;;;;;8.02;3.65;;;13.70;99.90;;;;;;5043308;28;20589;-57
2023/05/01 08:28:28;;;;;;;11.93;3.60;;;13.80;99.90;;;;;;5044809;28;20064;-57
2023/05/01 08:30:54;;;;;;;8.27;3.58;;;13.90;99.90;;;;;;5047583;28;20550;-57
2023/05/01 08:33:20;;;;;;;11.43;3.70;;;13.90;99.90;;;;;;5055609;28;20734;-57
2023/05/01 08:35:45;;;;;;;7.53;3.83;;;13.90;99.90;;;;;;5054829;28;20063;-57
2023/05/01 08:38:11;;;;;;;9.52;3.95;;;14.10;99.90;;;;;;5054048;28;20037;-57
2023/05/01 08:40:37;;;;;;;9.77;3.88;;;14.10;99.90;;;;;;5054729;28;20155;-56
2023/05/01 08:43:03;;;;;;;11.43;4.20;;;14.30;99.90;;;;;;5054267;28;20973;-57
2023/05/01 08:45:36;;;;;;;12.35;3.70;;;14.40;99.90;;;;;;5055036;28;20122;-57
2023/05/01 08:48:05;;;;;;;6.57;3.20;;;14.50;99.90;;;;;;5053884;28;20041;-56
2023/05/01 08:50:35;;;;;;;7.50;3.20;;;14.60;99.90;;;;;;5052997;28;20045;-57
2023/05/01 08:53:02;;;;;;;7.40;2.95;;;14.50;99.90;;;;;;5054684;28;20130;-57
2023/05/01 08:55:31;;;;;;;10.23;3.33;;;14.50;99.90;;;;;;5054170;28;20056;-57
2023/05/01 08:57:57;;;;;;;6.22;2.90;;;14.40;99.90;;;;;;5054791;28;20445;-57
2023/05/01 09:00:24;;;;;;;9.10;3.25;;;14.60;99.90;;;;;;5053989;28;20500;-57
2023/05/01 09:02:51;;;;;;;8.10;3.00;;;14.50;99.90;;;;;;5055307;28;20110;-57
2023/05/01 09:05:18;;;;;;;7.72;3.60;;;14.50;99.90;;;;;;5053774;28;20041;-57
2023/05/01 09:07:45;;;;;;;11.05;3.30;;;14.70;99.90;;;;;;5054869;28;20437;-57
2023/05/01 09:10:17;;;;;;;8.40;3.53;;;14.80;99.90;;;;;;5053963;28;20044;-56
2023/05/01 09:12:48;;;;;;;10.65;4.22;;;15.00;99.90;;;;;;5053830;28;20053;-56
2023/05/01 09:15:14;;;;;;;9.32;3.40;;;14.80;99.90;;;;;;5054371;28;20059;-56
2023/05/01 09:17:41;;;;;;;6.65;2.88;;;15.00;99.90;;;;;;5053391;28;20049;-57
2023/05/01 09:20:07;;;;;;;8.32;3.35;;;15.10;99.90;;;;;;5054046;28;20104;-56
2023/05/01 09:22:33;;;;;;;9.57;3.22;;;14.80;99.90;;;;;;5053912;28;20051;-57
2023/05/01 09:25:00;;;;;;;9.63;3.30;;;14.90;99.90;;;;;;5054786;28;20038;-57
2023/05/01 09:27:26;;;;;;;8.30;3.50;;;15.10;99.90;;;;;;5054003;28;20056;-57
2023/05/01 09:29:52;;;;;;;6.00;3.20;;;15.30;99.90;;;;;;5053936;28;20060;-57
2023/05/01 09:32:23;;;;;;;7.75;3.30;;;15.20;99.90;;;;;;5054788;28;20036;-56
2023/05/01 09:34:51;;;;;;;8.02;2.75;;;15.20;99.90;;;;;;5053505;28;20505;-57
2023/05/01 09:37:29;;;;;;;7.50;3.40;;;15.50;99.90;;;;;;5055131;28;20075;-57
2023/05/01 09:40:03;;;;;;;9.05;3.60;;;15.60;99.90;;;;;;5044535;28;20049;-57
2023/05/01 09:42:31;;;;;;;8.50;3.50;;;15.90;99.90;;;;;;5034025;28;20065;-57
2023/05/01 09:45:00;;;;;;;9.85;3.17;;;15.70;99.90;;;;;;5036299;28;20071;-57
2023/05/01 09:47:28;;;;;;;7.90;3.95;;;15.80;99.90;;;;;;5045599;28;20100;-57
2023/05/01 09:49:58;;;;;;;9.40;4.60;;;15.80;99.90;;;;;;5058801;28;20048;-57
2023/05/01 09:52:28;;;;;;;8.57;3.72;;;15.70;99.90;;;;;;5057317;28;20049;-56
2023/05/01 09:55:14;;;;;;;7.97;3.38;;;15.80;99.90;;;;;;5058069;28;20554;-57
2023/05/01 09:57:41;;;;;;;7.78;3.20;;;16.00;99.90;;;;;;5060181;28;20049;-59
2023/05/01 10:00:09;;;;;;;9.52;3.30;;;16.10;99.90;;;;;;5060977;28;20048;-57
2023/05/01 10:02:35;;;;;;;9.10;3.70;;;16.00;99.90;;;;;;5061125;28;20048;-57
2023/05/01 10:05:01;;;;;;;7.65;3.10;;;16.10;99.90;;;;;;5060769;28;20557;-57
2023/05/01 10:07:28;;;;;;;8.13;3.05;;;16.00;99.90;;;;;;5062404;28;20049;-58
2023/05/01 10:09:54;;;;;;;5.13;2.38;;;16.10;99.90;;;;;;5060886;28;20087;-56
2023/05/01 10:12:27;;;;;;;9.13;2.47;;;16.10;99.90;;;;;;5061586;28;20057;-57
2023/05/01 10:14:54;;;;;;;6.60;2.30;;;16.00;99.80;;;;;;5061907;28;20429;-57
2023/05/01 10:17:20;;;;;;;7.57;2.60;;;16.20;99.90;;;;;;5060674;28;20531;-57
2023/05/01 10:19:52;;;;;;;8.68;2.45;;;16.20;99.90;;;;;;5062240;28;20029;-57
2023/05/01 10:22:17;;;;;;;6.65;2.53;;;16.30;99.90;;;;;;5060370;28;20064;-57
2023/05/01 10:24:46;;;;;;;5.53;2.35;;;16.40;99.90;;;;;;5061603;28;20134;-56
2023/05/01 10:27:12;;;;;;;6.32;2.70;;;16.50;99.90;;;;;;5061119;28;20068;-56
2023/05/01 10:29:41;;;;;;;8.55;3.15;;;16.70;99.90;;;;;;5061005;28;20056;-57
2023/05/01 10:32:08;;;;;;;7.35;2.70;;;16.50;99.90;;;;;;5061534;28;20049;-57
2023/05/01 10:34:42;;;;;;;8.32;2.80;;;16.50;99.90;;;;;;5042148;28;20151;-57
2023/05/01 10:37:18;;;;;;;5.97;2.55;;;16.90;99.90;;;;;;5062119;28;20052;-56
2023/05/01 10:39:43;;;;;;;7.00;2.50;;;16.70;99.90;;;;;;5059390;28;20056;-57
2023/05/01 10:42:12;;;;;;;4.95;2.20;;;16.90;99.90;;;;;;5060795;28;20041;-57
2023/05/01 10:44:39;;;;;;;6.60;2.35;;;16.90;99.90;;;;;;5060829;28;20052;-57
2023/05/01 10:47:23;;;;;;;7.38;2.53;;;17.10;99.80;;;;;;5059631;28;20029;-57
2023/05/01 10:50:08;;;;;;;6.30;2.30;;;16.90;99.40;;;;;;5061380;28;20048;-56
2023/05/01 10:53:11;;;;;;;7.00;3.00;;;17.00;99.70;;;;;;5059954;28;20055;-56
2023/05/01 10:55:42;;;;;;;7.70;2.60;;;17.00;99.30;;;;;;5059510;28;20136;-57
2023/05/01 10:58:09;;;;;;;7.47;2.50;;;17.10;99.90;;;;;;5061380;28;20454;-56
2023/05/01 11:00:34;;;;;;;8.07;2.70;;;17.20;99.90;;;;;;5058307;28;20439;-57
2023/05/01 11:03:23;;;;;;;5.70;2.22;;;17.20;99.90;;;;;;5061337;28;20078;-56
2023/05/01 11:06:03;;;;;;;6.50;2.20;;;17.30;99.90;;;;;;5060402;28;20044;-56
2023/05/01 11:08:30;;;;;;;7.10;2.88;;;17.40;99.90;;;;;;5059783;28;20048;-56
2023/05/01 11:10:56;;;;;;;5.00;1.30;;;17.30;99.90;;;;;;5060522;28;20044;-57
2023/05/01 11:14:01;;;;;;;7.10;2.25;;;17.40;99.90;;;;;;5059001;28;20103;-55
2023/05/01 11:16:42;;;;;;;6.65;2.00;;;17.10;99.00;;;;;;4997588;28;20165;-57
2023/05/01 11:19:39;;;;;;;7.03;2.20;;;17.00;99.40;;;;;;5055681;28;20075;-56
2023/05/01 11:22:12;;;;;;;7.28;1.92;;;17.10;99.50;;;;;;5058856;28;20086;-57
2023/05/01 11:24:38;;;;;;;6.18;2.40;;;17.40;99.50;;;;;;5060176;28;20040;-57
2023/05/01 11:27:03;;;;;;;6.03;1.80;;;17.30;99.10;;;;;;5059213;28;20048;-56
2023/05/01 11:29:34;;;;;;;7.50;1.95;;;17.20;99.50;;;;;;5059567;28;20109;-56
2023/05/01 11:32:00;;;;;;;8.35;2.70;;;17.10;99.60;;;;;;5060020;28;20049;-56
2023/05/01 11:34:26;;;;;;;8.27;2.55;;;17.10;99.50;;;;;;5059121;28;20057;-56
2023/05/01 11:36:52;;;;;;;7.82;2.40;;;17.20;99.30;;;;;;5060566;28;20044;-56
2023/05/01 11:39:18;;;;;;;6.07;2.38;;;17.30;99.60;;;;;;5058675;28;20090;-57
2023/05/01 11:41:45;;;;;;;5.35;2.28;;;17.40;98.90;;;;;;5060290;28;20049;-57
2023/05/01 11:44:12;;;;;;;7.13;2.83;;;17.40;99.70;;;;;;5058352;28;20099;-57
2023/05/01 11:46:38;;;;;;;7.55;2.63;;;17.20;99.90;;;;;;5059241;28;20040;-57
2023/05/01 11:49:04;;;;;;;7.95;2.70;;;17.10;99.90;;;;;;5059918;28;20457;-57
2023/05/01 11:51:30;;;;;;;8.98;2.63;;;16.80;99.20;;;;;;5058923;28;20052;-57
2023/05/01 11:54:11;;;;;;;5.55;1.98;;;17.00;99.90;;;;;;5059826;28;20177;-56
2023/05/01 11:56:39;;;;;;;6.05;1.85;;;17.30;99.80;;;;;;5056990;28;20088;-57
2023/05/01 11:59:16;;;;;;;4.88;2.03;;;17.50;99.70;;;;;;5058408;28;20045;-56
2023/05/01 12:01:43;;;;;;;6.82;2.65;;;17.20;99.10;;;;;;5059556;28;20516;-56
2023/05/01 12:04:10;;;;;;;4.70;1.80;;;17.50;99.50;;;;;;5052214;28;20110;-56
2023/05/01 12:06:44;;;;;;;5.80;2.15;;;17.80;98.80;;;;;;5050232;28;20116;-56
2023/05/01 12:09:30;;;;;;;5.68;1.83;;;17.60;98.60;;;;;;5043562;28;20042;-56
2023/05/01 12:11:58;;;;;;;7.20;2.28;;;17.60;98.00;;;;;;5050497;28;20052;-57
2023/05/01 12:14:24;;;;;;;7.70;2.42;;;17.70;99.00;;;;;;5047692;28;20028;-57
2023/05/01 12:16:50;;;;;;;8.82;2.83;;;17.70;99.40;;;;;;5047882;28;20048;-56
2023/05/01 12:19:16;;;;;;;7.70;3.00;;;17.60;99.90;;;;;;5046491;28;20069;-56
2023/05/01 12:21:42;;;;;;;6.78;3.10;;;17.50;99.70;;;;;;5046644;28;20073;-57
2023/05/01 12:24:10;;;;;;;6.75;3.10;;;17.50;99.90;;;;;;5047302;28;20038;-56
2023/05/01 12:26:36;;;;;;;6.72;3.22;;;17.50;99.70;;;;;;5045831;28;20025;-57
2023/05/01 12:29:07;;;;;;;6.50;2.50;;;17.50;99.60;;;;;;5063800;28;20405;-56
2023/05/01 12:31:33;;;;;;;5.53;2.60;;;17.70;99.60;;;;;;5048288;28;20051;-56
2023/05/01 12:34:06;;;;;;;7.03;2.70;;;17.80;99.30;;;;;;5046281;28;20052;-57
2023/05/01 12:36:36;;;;;;;4.80;2.00;;;17.80;98.90;;;;;;5046849;28;20052;-56
2023/05/01 12:39:06;;;;;;;5.85;1.98;;;17.60;98.90;;;;;;5043466;28;20049;-56
2023/05/01 12:41:39;;;;;;;5.10;1.80;;;17.50;98.90;;;;;;5039222;28;20524;-57
2023/05/01 12:44:24;;;;;;;6.15;2.10;;;17.50;99.10;;;;;;5038232;28;20226;-56
2023/05/01 12:47:03;;;;;;;6.50;2.50;;;17.40;99.30;;;;;;5043391;28;20041;-56
2023/05/01 12:49:30;;;;;;;5.78;2.35;;;17.30;99.90;;;;;;5059192;28;20101;-57
2023/05/01 12:51:58;;;;;;;7.15;2.65;;;17.30;99.90;;;;;;5057803;28;20171;-56